Time;durP1;ratioP1;P1;durP2;ratioP2;P2;SDS_P1;SDS_P2;PMS_P1;PMS_P2;Temp;Humidity;BMP_temperature;BMP_pressure;BME280_temperature;BME280_humidity;BME280_pressure;Samples;Min_cycle;Max_cycle;Signal;HPM_P1;HPM_P2
2023/10/01 00:00:26;;;;;;;5.45;3.50;;;12.40;99.90;;;;;;5053848;28;20623;-62
2023/10/01 00:02:55;;;;;;;8.70;4.00;;;12.40;99.90;;;;;;5067921;28;20217;-61
2023/10/01 00:05:24;;;;;;;6.93;3.72;;;12.40;99.90;;;;;;5062884;28;20226;-61
2023/10/01 00:07:53;;;;;;;3.90;3.45;;;12.30;99.90;;;;;;5053996;28;20230;-61
2023/10/01 00:10:22;;;;;;;5.75;3.75;;;12.30;99.90;;;;;;5053656;28;20278;-60
2023/10/01 00:12:52;;;;;;;6.70;3.60;;;12.30;99.90;;;;;;5053968;28;20213;-62
2023/10/01 00:15:21;;;;;;;4.35;3.40;;;12.30;99.90;;;;;;5053609;28;20222;-63
2023/10/01 00:17:49;;;;;;;5.65;3.42;;;12.30;99.90;;;;;;5059009;28;20705;-63
2023/10/01 00:20:22;;;;;;;6.22;3.63;;;12.20;99.90;;;;;;5068332;28;20585;-63
2023/10/01 00:22:50;;;;;;;6.70;3.50;;;12.20;99.90;;;;;;5067560;28;20679;-61
2023/10/01 00:25:22;;;;;;;6.35;3.80;;;12.20;99.90;;;;;;5053432;28;20226;-62
2023/10/01 00:27:50;;;;;;;4.35;3.63;;;12.20;99.90;;;;;;5053768;28;20226;-61
2023/10/01 00:30:18;;;;;;;4.13;3.22;;;12.20;99.90;;;;;;5062643;28;20215;-60
2023/10/01 00:32:46;;;;;;;3.95;3.58;;;12.10;99.90;;;;;;5067977;28;20864;-61
2023/10/01 00:35:14;;;;;;;5.90;3.80;;;12.10;99.90;;;;;;5053227;28;20234;-61
2023/10/01 00:37:42;;;;;;;4.22;3.03;;;12.10;99.90;;;;;;5053494;28;20247;-62
2023/10/01 00:40:11;;;;;;;4.95;3.40;;;12.10;99.90;;;;;;5052910;28;20210;-63
2023/10/01 00:42:40;;;;;;;6.55;3.97;;;12.00;99.90;;;;;;5052611;28;20210;-62
2023/10/01 00:45:12;;;;;;;5.18;3.97;;;12.00;99.90;;;;;;5069703;28;20225;-63
2023/10/01 00:47:40;;;;;;;4.68;3.47;;;12.00;99.90;;;;;;5060423;28;20261;-63
2023/10/01 00:50:11;;;;;;;6.93;3.97;;;11.90;99.90;;;;;;5052828;28;20635;-63
2023/10/01 00:52:40;;;;;;;3.53;3.22;;;11.90;99.90;;;;;;5053215;28;20210;-62
2023/10/01 00:55:09;;;;;;;7.47;4.10;;;11.90;99.90;;;;;;5052906;28;20234;-62
2023/10/01 00:57:38;;;;;;;5.35;3.63;;;11.80;99.90;;;;;;5053172;28;20198;-62
2023/10/01 01:00:13;;;;;;;4.57;3.70;;;11.80;99.90;;;;;;5059707;28;20686;-62
2023/10/01 01:02:46;;;;;;;7.70;3.80;;;11.80;99.90;;;;;;5054250;28;20205;-62
2023/10/01 01:05:34;;;;;;;5.75;3.88;;;11.80;99.90;;;;;;5052648;28;20230;-62
2023/10/01 01:08:09;;;;;;;6.20;3.80;;;11.70;99.90;;;;;;5052679;28;20284;-62
2023/10/01 01:10:40;;;;;;;6.93;3.40;;;11.70;99.90;;;;;;5052688;28;20205;-62
2023/10/01 01:13:08;;;;;;;4.88;3.80;;;11.70;99.90;;;;;;5052788;28;20565;-62
2023/10/01 01:15:38;;;;;;;6.60;3.63;;;11.70;99.90;;;;;;5054542;28;20232;-61
2023/10/01 01:18:07;;;;;;;7.68;3.55;;;11.70;99.90;;;;;;5064545;28;20197;-61
2023/10/01 01:20:41;;;;;;;3.42;3.10;;;11.70;99.90;;;;;;5068740;28;20259;-62
2023/10/01 01:23:16;;;;;;;6.88;3.30;;;11.60;99.90;;;;;;5057683;28;20215;-61
2023/10/01 01:25:45;;;;;;;4.32;3.33;;;11.70;99.90;;;;;;5060609;28;20756;-61
2023/10/01 01:28:15;;;;;;;5.25;3.50;;;11.60;99.90;;;;;;5050797;28;20710;-61
2023/10/01 01:30:46;;;;;;;6.00;3.58;;;11.60;99.90;;;;;;5056800;28;20678;-61
2023/10/01 01:33:20;;;;;;;5.88;3.80;;;11.60;99.90;;;;;;5054424;28;20304;-61
2023/10/01 01:35:50;;;;;;;6.68;4.30;;;11.50;99.90;;;;;;5050735;28;20224;-62
2023/10/01 01:38:20;;;;;;;7.18;4.18;;;11.50;99.90;;;;;;5052392;28;20202;-62
2023/10/01 01:40:50;;;;;;;10.30;4.30;;;11.50;99.90;;;;;;5052005;28;20216;-62
2023/10/01 01:43:22;;;;;;;6.25;4.65;;;11.40;99.90;;;;;;5052286;28;20693;-62
2023/10/01 01:45:54;;;;;;;5.65;4.30;;;11.40;99.90;;;;;;5066334;28;20230;-62
2023/10/01 01:48:26;;;;;;;5.82;4.32;;;11.40;99.90;;;;;;5051890;28;20236;-61
2023/10/01 01:50:54;;;;;;;4.63;3.80;;;11.40;99.90;;;;;;5052235;28;20205;-62
2023/10/01 01:53:26;;;;;;;5.75;4.13;;;11.30;99.90;;;;;;5051940;28;20230;-62
2023/10/01 01:55:55;;;;;;;4.20;3.78;;;11.30;99.90;;;;;;5050771;28;20894;-62
2023/10/01 01:58:25;;;;;;;5.18;3.75;;;11.30;99.90;;;;;;5053516;28;20251;-61
2023/10/01 02:01:23;;;;;;;5.40;3.50;;;11.30;99.90;;;;;;5062556;28;20213;-61
2023/10/01 02:03:53;;;;;;;4.80;3.95;;;11.30;99.90;;;;;;5066314;28;20549;-61
2023/10/01 02:06:27;;;;;;;7.38;3.60;;;11.30;99.90;;;;;;5051288;28;20707;-61
2023/10/01 02:08:58;;;;;;;3.72;3.28;;;11.30;99.90;;;;;;5051462;28;20221;-61
2023/10/01 02:11:29;;;;;;;7.63;3.95;;;11.30;99.90;;;;;;5069792;28;20209;-62
2023/10/01 02:13:59;;;;;;;9.43;4.15;;;11.30;99.90;;;;;;5057230;28;20206;-62
2023/10/01 02:16:37;;;;;;;5.93;3.38;;;11.20;99.90;;;;;;5051536;28;20257;-61
2023/10/01 02:19:22;;;;;;;8.02;3.67;;;11.20;99.90;;;;;;5051876;28;20226;-61
2023/10/01 02:21:52;;;;;;;6.10;3.65;;;11.20;99.90;;;;;;5051991;28;20206;-62
2023/10/01 02:24:23;;;;;;;4.50;4.00;;;11.20;99.90;;;;;;5051988;28;20206;-61
2023/10/01 02:26:53;;;;;;;4.78;3.70;;;11.20;99.90;;;;;;5057392;28;20202;-62
2023/10/01 02:29:28;;;;;;;5.03;3.33;;;11.20;99.90;;;;;;5051151;28;20695;-62
2023/10/01 02:31:57;;;;;;;5.68;3.58;;;11.20;99.90;;;;;;5051371;28;20297;-62
2023/10/01 02:34:26;;;;;;;4.20;3.58;;;11.20;99.90;;;;;;5051556;28;20210;-62
2023/10/01 02:36:55;;;;;;;6.88;3.70;;;11.10;99.90;;;;;;5049271;28;20221;-61
2023/10/01 02:39:28;;;;;;;3.15;2.92;;;11.10;99.90;;;;;;5049958;28;20198;-61
2023/10/01 02:42:09;;;;;;;5.25;3.42;;;11.10;99.90;;;;;;5051281;28;20267;-61
2023/10/01 02:44:46;;;;;;;6.60;3.13;;;11.00;99.90;;;;;;5050928;28;20666;-62
2023/10/01 02:47:16;;;;;;;4.43;3.33;;;11.00;99.90;;;;;;5051248;28;20244;-62
2023/10/01 02:49:49;;;;;;;4.00;3.53;;;11.00;99.90;;;;;;5050845;28;20229;-62
2023/10/01 02:52:17;;;;;;;4.60;3.03;;;11.00;99.90;;;;;;5059237;28;20255;-63
2023/10/01 02:54:53;;;;;;;4.25;3.42;;;10.90;99.90;;;;;;5061819;28;21090;-63
2023/10/01 02:57:24;;;;;;;6.07;3.55;;;10.90;99.90;;;;;;5070408;28;20216;-62
2023/10/01 03:02:57;;;;;;;8.27;3.85;;;10.90;99.90;;;;;;5009239;28;20978;-62
2023/10/01 03:05:28;;;;;;;6.32;4.43;;;10.80;99.90;;;;;;5006776;28;20813;-63
2023/10/01 03:07:57;;;;;;;5.60;4.53;;;10.80;99.90;;;;;;5034930;28;20210;-63
2023/10/01 03:10:26;;;;;;;5.78;3.75;;;10.80;99.90;;;;;;5060685;28;20651;-63
2023/10/01 03:12:55;;;;;;;4.50;3.95;;;10.80;99.90;;;;;;5050978;28;20215;-62
2023/10/01 03:15:27;;;;;;;3.95;3.55;;;10.80;99.90;;;;;;5050528;28;20254;-62
2023/10/01 03:18:05;;;;;;;7.13;3.63;;;10.80;99.90;;;;;;5050246;28;20218;-62
2023/10/01 03:23:36;;;;;;;4.22;3.28;;;10.80;99.90;;;;;;4989306;28;21818;-63
2023/10/01 03:26:07;;;;;;;6.85;3.08;;;10.70;99.90;;;;;;4988854;28;20275;-62
2023/10/01 03:29:14;;;;;;;3.50;3.20;;;10.70;99.90;;;;;;5018054;28;20265;-63
2023/10/01 03:31:25;;;;;;;4.75;3.28;;;10.70;99.90;;;;;;5049562;28;20259;-61
2023/10/01 03:33:54;;;;;;;4.25;3.20;;;10.70;99.90;;;;;;5059472;28;20234;-62
2023/10/01 03:36:25;;;;;;;3.70;3.40;;;10.70;99.90;;;;;;5053876;28;20233;-61
2023/10/01 03:38:57;;;;;;;3.92;3.15;;;10.70;99.90;;;;;;5050525;28;20628;-62
2023/10/01 03:41:52;;;;;;;7.15;3.13;;;10.70;99.90;;;;;;5050184;28;20729;-61
2023/10/01 03:44:15;;;;;;;3.00;2.80;;;10.70;99.90;;;;;;5050530;28;20643;-61
2023/10/01 03:46:45;;;;;;;3.42;2.92;;;10.60;99.90;;;;;;5061646;28;20228;-61
2023/10/01 03:51:59;;;;;;;4.25;3.25;;;10.70;99.90;;;;;;5060424;28;20812;-61
2023/10/01 03:54:52;;;;;;;4.88;3.50;;;10.60;99.90;;;;;;5054288;28;20334;-62
2023/10/01 03:57:17;;;;;;;3.10;2.85;;;10.60;99.90;;;;;;5054395;28;20221;-61
2023/10/01 03:59:51;;;;;;;4.45;3.13;;;10.50;99.90;;;;;;5049326;28;20197;-62
2023/10/01 04:02:28;;;;;;;5.25;3.75;;;10.50;99.90;;;;;;5057808;28;20210;-61
2023/10/01 04:05:01;;;;;;;6.03;3.70;;;10.50;99.90;;;;;;5058534;28;20594;-62
2023/10/01 04:07:40;;;;;;;4.07;3.35;;;10.50;99.90;;;;;;5056179;28;20279;-61
2023/10/01 04:10:13;;;;;;;4.82;3.20;;;10.50;99.90;;;;;;5053928;28;20237;-61
2023/10/01 04:12:44;;;;;;;6.22;3.38;;;10.40;99.90;;;;;;5053458;28;20206;-62
2023/10/01 04:15:27;;;;;;;5.15;3.70;;;10.40;99.90;;;;;;5069544;28;20270;-62
2023/10/01 04:21:17;;;;;;;6.82;3.60;;;10.40;99.90;;;;;;5088587;28;20549;-61
2023/10/01 04:23:47;;;;;;;9.32;3.38;;;10.30;99.90;;;;;;5088766;28;20215;-61
2023/10/01 04:26:17;;;;;;;6.07;3.63;;;10.30;99.90;;;;;;5095924;28;20718;-61
2023/10/01 04:28:46;;;;;;;4.15;3.55;;;10.30;99.90;;;;;;5079428;28;20654;-63
2023/10/01 04:31:18;;;;;;;6.35;3.40;;;10.30;99.90;;;;;;5088458;28;20200;-62
2023/10/01 04:33:48;;;;;;;7.15;3.67;;;10.30;99.90;;;;;;5088806;28;20201;-62
2023/10/01 04:36:19;;;;;;;6.80;3.03;;;10.30;99.90;;;;;;5088740;28;20706;-61
2023/10/01 04:38:59;;;;;;;4.50;3.35;;;10.30;99.90;;;;;;5099663;28;20649;-61
2023/10/01 04:41:28;;;;;;;4.07;3.35;;;10.20;99.90;;;;;;5086883;28;20638;-63
2023/10/01 04:43:59;;;;;;;4.07;3.40;;;10.10;99.90;;;;;;5088231;28;20634;-62
2023/10/01 04:46:29;;;;;;;7.28;3.17;;;10.10;99.90;;;;;;5088056;28;20252;-62
2023/10/01 04:49:07;;;;;;;5.60;3.30;;;10.10;99.90;;;;;;5096797;28;20192;-61
2023/10/01 04:51:49;;;;;;;6.47;3.20;;;10.20;99.90;;;;;;5088575;28;20650;-61
2023/10/01 04:54:21;;;;;;;6.05;3.20;;;10.10;99.90;;;;;;5082283;28;20296;-61
2023/10/01 04:56:49;;;;;;;5.10;2.83;;;10.10;99.90;;;;;;5061029;22;20287;-59
2023/10/01 04:59:18;;;;;;;3.70;3.40;;;10.10;99.90;;;;;;5047568;28;20288;-61
2023/10/01 05:01:47;;;;;;;3.53;2.63;;;10.10;99.90;;;;;;5047705;28;20204;-59
2023/10/01 05:04:16;;;;;;;4.00;2.67;;;10.10;99.90;;;;;;5047814;28;20667;-60
2023/10/01 05:06:59;;;;;;;7.35;2.95;;;10.10;99.90;;;;;;5047632;28;20257;-61
2023/10/01 05:09:30;;;;;;;3.75;3.05;;;10.10;99.90;;;;;;5028745;28;20720;-61
2023/10/01 05:12:01;;;;;;;9.23;3.25;;;10.10;99.90;;;;;;5050822;28;20559;-61
2023/10/01 05:14:29;;;;;;;4.55;2.58;;;10.10;99.90;;;;;;5047581;28;20289;-60
2023/10/01 05:17:07;;;;;;;7.90;3.35;;;10.00;99.90;;;;;;5047634;28;20257;-61
2023/10/01 05:19:37;;;;;;;5.88;2.88;;;10.00;99.90;;;;;;5030840;28;20634;-60
2023/10/01 05:22:08;;;;;;;3.45;3.13;;;10.00;99.90;;;;;;5038098;28;20309;-60
2023/10/01 05:24:40;;;;;;;4.78;3.22;;;10.00;99.90;;;;;;5047408;28;20583;-60
2023/10/01 05:27:09;;;;;;;3.38;3.05;;;10.00;99.90;;;;;;5047189;28;20653;-61
2023/10/01 05:29:38;;;;;;;5.25;3.20;;;10.00;99.90;;;;;;5029800;28;20210;-61
2023/10/01 05:32:07;;;;;;;4.60;3.22;;;10.00;99.90;;;;;;5028491;28;20202;-61
2023/10/01 05:34:35;;;;;;;4.93;3.20;;;9.90;99.90;;;;;;5026337;28;20699;-61
2023/10/01 05:37:09;;;;;;;3.25;2.88;;;9.90;99.90;;;;;;5019177;28;20223;-60
2023/10/01 05:42:31;;;;;;;4.97;3.00;;;9.90;99.90;;;;;;5033813;28;20213;-61
2023/10/01 05:44:59;;;;;;;4.47;3.20;;;9.90;99.90;;;;;;5015167;28;20200;-62
2023/10/01 05:47:41;;;;;;;4.10;2.92;;;9.90;99.90;;;;;;5030470;28;20791;-60
2023/10/01 05:50:11;;;;;;;4.85;2.50;;;9.90;99.90;;;;;;5021985;28;20198;-60
2023/10/01 05:52:40;;;;;;;3.78;2.63;;;9.90;99.90;;;;;;5021646;28;20207;-60
2023/10/01 05:55:12;;;;;;;3.28;2.47;;;10.00;99.90;;;;;;5017005;28;20746;-60
2023/10/01 05:57:40;;;;;;;7.43;3.42;;;10.00;99.90;;;;;;5024723;28;20297;-59
2023/10/01 06:00:17;;;;;;;4.50;3.08;;;10.00;99.90;;;;;;5021307;28;20592;-61
2023/10/01 06:02:48;;;;;;;3.70;2.88;;;10.00;99.90;;;;;;5024500;28;20692;-61
2023/10/01 06:05:32;;;;;;;2.72;2.53;;;10.00;99.90;;;;;;5024000;28;20218;-62
2023/10/01 06:08:06;;;;;;;7.00;2.63;;;10.00;99.90;;;;;;5034138;28;20660;-64
2023/10/01 06:10:38;;;;;;;5.78;3.05;;;10.00;99.90;;;;;;5032853;28;20239;-63
2023/10/01 06:13:07;;;;;;;5.05;3.13;;;10.10;99.90;;;;;;5033702;28;20564;-64
2023/10/01 06:15:35;;;;;;;3.78;2.90;;;10.10;99.90;;;;;;5033598;28;20222;-64
2023/10/01 06:18:05;;;;;;;3.50;3.05;;;10.10;99.90;;;;;;5030653;28;20203;-61
2023/10/01 06:20:33;;;;;;;3.30;2.95;;;10.10;99.90;;;;;;5022248;28;20306;-60
2023/10/01 06:23:01;;;;;;;3.22;2.53;;;10.10;99.90;;;;;;5012763;28;20207;-64
2023/10/01 06:25:41;;;;;;;5.55;3.08;;;10.20;99.90;;;;;;5013701;28;20227;-64
2023/10/01 06:28:10;;;;;;;8.23;3.03;;;10.10;99.90;;;;;;5021448;28;20203;-63
2023/10/01 06:30:40;;;;;;;2.90;2.70;;;10.20;99.90;;;;;;5012188;28;20207;-64
2023/10/01 06:33:24;;;;;;;4.00;3.60;;;10.20;99.90;;;;;;5010471;28;20235;-65
2023/10/01 06:36:15;;;;;;;3.78;3.22;;;10.30;99.90;;;;;;5008794;28;20245;-63
2023/10/01 06:38:44;;;;;;;4.25;3.40;;;10.40;99.90;;;;;;5031514;28;20229;-62
2023/10/01 06:41:18;;;;;;;5.88;3.47;;;10.40;99.90;;;;;;5014128;28;20223;-63
2023/10/01 06:43:54;;;;;;;5.13;2.95;;;10.60;99.90;;;;;;5021120;28;20754;-64
2023/10/01 06:46:27;;;;;;;5.13;3.17;;;10.60;99.90;;;;;;5019986;28;20715;-61
2023/10/01 06:48:56;;;;;;;3.72;3.33;;;10.70;99.90;;;;;;5032508;28;20245;-62
2023/10/01 06:51:25;;;;;;;4.63;3.15;;;10.70;99.90;;;;;;5032150;28;20241;-62
2023/10/01 06:53:58;;;;;;;4.95;3.53;;;10.80;99.90;;;;;;5033150;28;20234;-64
2023/10/01 06:56:32;;;;;;;4.93;3.40;;;10.90;99.90;;;;;;5032780;28;20726;-61
2023/10/01 06:59:14;;;;;;;4.53;3.90;;;11.00;99.90;;;;;;5026130;28;20210;-62
2023/10/01 07:01:49;;;;;;;8.23;3.58;;;11.00;99.90;;;;;;5030534;28;20258;-64
2023/10/01 07:04:19;;;;;;;6.53;4.00;;;11.10;99.90;;;;;;5033958;28;20202;-62
2023/10/01 07:06:50;;;;;;;9.18;3.97;;;11.20;99.90;;;;;;5032740;28;20237;-63
2023/10/01 07:09:34;;;;;;;9.73;3.70;;;11.20;99.90;;;;;;5033793;28;20585;-65
2023/10/01 07:12:03;;;;;;;6.93;4.63;;;11.30;99.90;;;;;;5032978;28;20205;-61
2023/10/01 07:14:38;;;;;;;6.13;3.92;;;11.40;99.90;;;;;;5028163;28;20730;-61
2023/10/01 07:17:09;;;;;;;3.80;3.45;;;11.50;99.90;;;;;;5031544;28;20651;-61
2023/10/01 07:19:37;;;;;;;5.95;3.83;;;11.60;99.90;;;;;;5031663;28;20276;-61
2023/10/01 07:22:07;;;;;;;6.10;3.97;;;11.70;99.90;;;;;;5031791;28;20257;-63
2023/10/01 07:24:35;;;;;;;5.97;4.40;;;11.80;99.90;;;;;;5031858;28;20199;-63
2023/10/01 07:27:06;;;;;;;9.82;4.28;;;11.90;99.90;;;;;;5031519;28;20254;-63
2023/10/01 07:29:35;;;;;;;7.05;5.10;;;12.00;99.90;;;;;;5020428;28;20299;-62
2023/10/01 07:32:06;;;;;;;6.75;4.72;;;12.10;99.90;;;;;;5031286;28;20195;-63
2023/10/01 07:34:35;;;;;;;7.75;5.35;;;12.20;99.90;;;;;;5031644;28;20214;-64
2023/10/01 07:37:04;;;;;;;15.38;6.57;;;12.30;99.90;;;;;;5033727;28;20577;-65
2023/10/01 07:39:35;;;;;;;12.93;6.57;;;12.40;99.90;;;;;;5034464;28;20213;-65
2023/10/01 07:42:04;;;;;;;11.43;7.93;;;12.50;99.90;;;;;;5031907;28;20341;-61
2023/10/01 07:44:35;;;;;;;18.70;8.77;;;12.70;99.90;;;;;;5028014;28;20210;-62
2023/10/01 07:47:03;;;;;;;11.45;7.60;;;12.80;99.90;;;;;;5022619;28;20240;-62
2023/10/01 07:49:46;;;;;;;14.02;7.47;;;12.90;99.90;;;;;;5007230;28;20211;-63
2023/10/01 07:52:17;;;;;;;17.05;10.25;;;13.00;99.90;;;;;;5005184;28;20199;-64
2023/10/01 07:54:47;;;;;;;15.65;9.30;;;13.10;99.90;;;;;;5008923;28;20213;-64
2023/10/01 07:57:17;;;;;;;11.48;8.27;;;13.30;99.90;;;;;;5005885;28;20641;-64
2023/10/01 07:59:52;;;;;;;14.60;10.18;;;13.40;99.90;;;;;;5005487;28;20590;-62
2023/10/01 08:02:28;;;;;;;18.85;9.95;;;13.50;99.90;;;;;;5007532;28;20226;-61
2023/10/01 08:04:58;;;;;;;15.70;10.93;;;13.60;99.90;;;;;;5012600;28;20210;-61
2023/10/01 08:07:42;;;;;;;17.98;10.80;;;13.70;99.90;;;;;;5010770;28;20204;-61
2023/10/01 08:10:20;;;;;;;18.20;11.25;;;13.80;99.90;;;;;;5008872;28;20668;-63
2023/10/01 08:13:06;;;;;;;17.42;10.30;;;13.90;99.90;;;;;;5001737;28;20340;-62
2023/10/01 08:15:57;;;;;;;17.20;10.45;;;14.00;99.90;;;;;;5005596;28;20322;-62
2023/10/01 08:18:34;;;;;;;20.30;11.48;;;14.10;99.90;;;;;;5009103;28;20207;-61
2023/10/01 08:21:04;;;;;;;19.05;12.23;;;14.30;99.90;;;;;;5010784;28;20443;-61
2023/10/01 08:23:33;;;;;;;21.50;12.27;;;14.40;99.90;;;;;;5010560;28;20281;-60
2023/10/01 08:26:39;;;;;;;19.85;10.77;;;14.50;99.90;;;;;;5018096;28;20595;-60
2023/10/01 08:28:57;;;;;;;20.33;13.18;;;14.70;99.90;;;;;;5009377;28;20225;-62
2023/10/01 08:34:27;;;;;;;21.75;12.93;;;14.90;99.90;;;;;;5004892;28;20203;-63
2023/10/01 08:36:55;;;;;;;23.05;13.93;;;15.00;99.90;;;;;;5013884;28;20222;-64
2023/10/01 08:39:34;;;;;;;24.65;13.05;;;15.10;99.90;;;;;;5030528;28;20215;-64
2023/10/01 08:42:08;;;;;;;22.45;14.32;;;15.10;99.90;;;;;;5011402;28;20223;-64
2023/10/01 08:44:44;;;;;;;19.17;13.23;;;15.10;99.90;;;;;;5012035;28;20207;-63
2023/10/01 08:47:27;;;;;;;23.23;13.38;;;15.20;99.90;;;;;;5030531;28;20284;-61
2023/10/01 08:49:56;;;;;;;22.45;12.95;;;15.40;99.90;;;;;;5031125;28;20211;-61
2023/10/01 08:52:30;;;;;;;22.45;14.07;;;15.50;99.90;;;;;;5030534;28;20203;-61
2023/10/01 08:54:58;;;;;;;22.63;13.80;;;15.70;99.90;;;;;;5030526;28;20211;-62
2023/10/01 08:57:38;;;;;;;24.90;14.45;;;15.80;99.90;;;;;;5030130;28;20566;-61
2023/10/01 09:00:17;;;;;;;25.58;14.20;;;15.90;99.90;;;;;;5026479;28;20298;-62
2023/10/01 09:02:51;;;;;;;20.92;13.43;;;16.20;99.90;;;;;;5026075;28;20227;-62
2023/10/01 09:05:24;;;;;;;31.77;13.98;;;16.40;99.90;;;;;;5030351;28;20222;-64
2023/10/01 09:08:14;;;;;;;22.27;12.25;;;16.50;99.90;;;;;;5034209;28;20861;-64
2023/10/01 09:10:53;;;;;;;20.40;12.75;;;16.80;99.90;;;;;;5033289;28;20206;-64
2023/10/01 09:13:26;;;;;;;23.42;12.98;;;17.00;99.90;;;;;;5034152;28;20207;-65
2023/10/01 09:15:57;;;;;;;29.13;13.80;;;17.20;99.90;;;;;;5026610;28;20226;-64
2023/10/01 09:18:27;;;;;;;24.40;13.45;;;17.30;99.90;;;;;;5033873;28;20230;-64
2023/10/01 09:23:54;;;;;;;23.20;13.15;;;17.50;99.90;;;;;;5033895;28;20289;-64
2023/10/01 09:26:42;;;;;;;22.08;11.50;;;17.80;99.90;;;;;;5033321;28;20625;-63
2023/10/01 09:29:21;;;;;;;21.10;12.68;;;18.10;99.90;;;;;;5032674;28;20206;-64
2023/10/01 09:31:54;;;;;;;22.08;12.32;;;18.40;99.90;;;;;;5028367;28;20210;-64
2023/10/01 09:34:34;;;;;;;23.63;12.05;;;18.70;99.90;;;;;;5030839;28;20260;-64
2023/10/01 09:37:03;;;;;;;21.85;11.35;;;19.00;99.90;;;;;;5024250;28;20222;-63
2023/10/01 09:39:41;;;;;;;19.55;11.77;;;19.30;99.90;;;;;;5032683;28;20668;-62
2023/10/01 09:42:22;;;;;;;25.48;11.40;;;19.50;99.90;;;;;;5032692;28;20220;-64
2023/10/01 09:44:52;;;;;;;27.25;11.65;;;19.70;99.90;;;;;;5027208;28;20382;-62
2023/10/01 09:47:24;;;;;;;24.08;11.40;;;19.90;99.90;;;;;;5033186;28;20202;-64
2023/10/01 09:49:54;;;;;;;21.75;11.18;;;20.20;99.90;;;;;;5033016;28;20285;-64
2023/10/01 09:52:30;;;;;;;22.35;10.27;;;20.40;99.90;;;;;;5033593;28;20206;-64
2023/10/01 09:55:02;;;;;;;17.55;10.63;;;20.60;99.90;;;;;;5033229;28;20201;-64
2023/10/01 09:57:34;;;;;;;17.42;9.95;;;20.90;99.90;;;;;;5033230;28;20217;-63
2023/10/01 10:00:17;;;;;;;19.25;11.13;;;21.10;99.90;;;;;;5032169;28;20208;-64
2023/10/01 10:02:51;;;;;;;25.30;10.73;;;21.20;99.90;;;;;;5023936;28;20227;-64
2023/10/01 10:05:28;;;;;;;19.48;10.60;;;21.40;99.90;;;;;;5024840;28;20591;-62
2023/10/01 10:07:56;;;;;;;17.65;9.40;;;21.70;99.90;;;;;;5031956;28;20218;-62
2023/10/01 10:10:27;;;;;;;18.52;9.48;;;21.90;99.90;;;;;;5032600;28;20231;-62
2023/10/01 10:12:56;;;;;;;17.98;9.30;;;22.30;99.90;;;;;;5033355;28;20198;-63
2023/10/01 10:15:55;;;;;;;18.67;9.25;;;22.60;99.90;;;;;;5032948;28;20232;-62
2023/10/01 10:18:25;;;;;;;20.60;9.00;;;22.80;99.90;;;;;;4994293;28;20206;-63
2023/10/01 10:21:03;;;;;;;17.58;9.13;;;23.10;99.90;;;;;;5032392;28;20688;-62
2023/10/01 10:23:31;;;;;;;17.33;9.23;;;23.40;99.90;;;;;;5032947;28;20230;-63
2023/10/01 10:26:13;;;;;;;15.88;9.23;;;23.60;99.90;;;;;;5032367;28;20723;-63
2023/10/01 10:28:53;;;;;;;19.05;9.20;;;23.80;99.90;;;;;;5032864;28;20257;-63
2023/10/01 10:31:29;;;;;;;17.98;8.65;;;24.10;99.90;;;;;;5026155;28;20237;-62
2023/10/01 10:34:25;;;;;;;17.52;8.13;;;24.10;99.90;;;;;;5032780;28;20220;-62
2023/10/01 10:36:55;;;;;;;17.13;8.48;;;24.30;99.90;;;;;;5032309;28;20295;-62
2023/10/01 10:40:02;;;;;;;18.88;9.80;;;24.50;99.90;;;;;;5032295;28;20209;-63
2023/10/01 10:42:33;;;;;;;19.48;8.93;;;24.70;99.90;;;;;;5032467;28;20222;-63
2023/10/01 10:45:22;;;;;;;19.98;9.55;;;24.90;99.90;;;;;;5032316;28;20221;-63
2023/10/01 10:47:59;;;;;;;14.60;8.20;;;25.10;99.90;;;;;;5026437;28;20202;-63
2023/10/01 10:50:48;;;;;;;12.20;8.20;;;25.30;99.90;;;;;;5032351;28;20197;-62
2023/10/01 10:53:19;;;;;;;15.43;8.82;;;25.50;99.90;;;;;;5032288;28;20668;-62
2023/10/01 10:55:53;;;;;;;14.48;8.02;;;25.70;99.90;;;;;;5058043;23;20236;-56
2023/10/01 10:58:24;;;;;;;13.63;8.65;;;25.80;99.90;;;;;;5052343;28;20201;-58
2023/10/01 11:00:52;;;;;;;13.27;8.32;;;26.00;99.90;;;;;;5051579;28;20205;-56
2023/10/01 11:03:42;;;;;;;16.45;8.77;;;26.00;99.90;;;;;;5052806;28;20225;-56
2023/10/01 11:06:17;;;;;;;14.25;7.85;;;26.30;99.90;;;;;;5064285;28;20225;-57
2023/10/01 11:08:51;;;;;;;16.67;8.52;;;26.50;99.90;;;;;;5055687;28;20306;-59
2023/10/01 11:11:27;;;;;;;17.42;9.75;;;26.70;99.90;;;;;;5061702;28;20201;-57
2023/10/01 11:14:16;;;;;;;16.55;8.52;;;26.90;99.90;;;;;;5044081;28;20564;-58
2023/10/01 11:16:46;;;;;;;14.00;7.78;;;27.00;99.90;;;;;;5068804;28;20254;-57
2023/10/01 11:19:16;;;;;;;16.35;9.05;;;27.10;99.90;;;;;;5062094;28;20209;-57
2023/10/01 11:21:54;;;;;;;17.35;9.32;;;27.20;99.90;;;;;;5040377;28;20206;-57
2023/10/01 11:24:25;;;;;;;17.25;8.88;;;27.40;99.90;;;;;;5063656;28;20200;-58
2023/10/01 11:27:43;;;;;;;17.08;9.32;;;27.60;99.90;;;;;;5031904;28;20225;-57
2023/10/01 11:30:20;;;;;;;14.23;8.40;;;27.80;99.90;;;;;;5047401;28;20196;-58
2023/10/01 11:36:06;;;;;;;19.15;7.65;;;27.80;99.90;;;;;;5060889;28;20274;-57
2023/10/01 11:38:36;;;;;;;14.90;8.50;;;28.00;99.90;;;;;;5065903;28;20672;-58
2023/10/01 11:41:09;;;;;;;18.83;8.43;;;28.30;99.90;;;;;;5035947;28;20352;-58
2023/10/01 11:43:38;;;;;;;16.13;8.35;;;28.50;99.90;;;;;;5047485;28;20229;-59
2023/10/01 11:46:29;;;;;;;14.27;7.60;;;28.70;99.90;;;;;;5070946;28;20224;-57
2023/10/01 11:48:59;;;;;;;13.18;8.25;;;28.70;99.90;;;;;;5071662;28;20704;-58
2023/10/01 11:51:32;;;;;;;16.23;8.45;;;28.80;99.90;;;;;;5071546;28;20211;-58
2023/10/01 11:54:08;;;;;;;13.60;8.38;;;28.70;99.90;;;;;;5071606;28;20208;-56
2023/10/01 11:56:40;;;;;;;15.63;8.35;;;28.80;99.90;;;;;;5042616;28;20229;-59
2023/10/01 11:59:10;;;;;;;14.88;9.18;;;28.90;99.90;;;;;;5032093;28;20203;-59
2023/10/01 12:01:39;;;;;;;14.43;8.73;;;29.10;99.90;;;;;;5044235;28;20283;-57
2023/10/01 12:04:08;;;;;;;17.60;8.43;;;29.30;99.90;;;;;;5037130;28;20229;-57
2023/10/01 12:06:38;;;;;;;14.68;8.18;;;29.40;99.90;;;;;;5046391;28;20221;-57
2023/10/01 12:09:06;;;;;;;14.77;8.77;;;29.50;99.90;;;;;;5070650;28;20710;-59
2023/10/01 12:11:36;;;;;;;15.35;8.48;;;29.30;99.90;;;;;;5061061;28;20289;-58
2023/10/01 12:14:08;;;;;;;15.02;7.95;;;29.40;99.90;;;;;;5032381;28;20684;-58
2023/10/01 12:16:39;;;;;;;14.50;7.80;;;29.40;99.90;;;;;;5061359;28;20224;-57
2023/10/01 12:19:23;;;;;;;19.00;8.90;;;29.50;99.90;;;;;;5071505;28;20209;-58
2023/10/01 12:22:05;;;;;;;13.00;8.15;;;29.50;99.90;;;;;;5071150;28;20215;-58
2023/10/01 12:24:39;;;;;;;12.63;8.63;;;29.80;99.90;;;;;;5069525;28;20235;-58
2023/10/01 12:27:11;;;;;;;12.65;7.38;;;29.90;99.90;;;;;;5031775;28;20238;-57
2023/10/01 12:29:48;;;;;;;17.08;9.23;;;30.00;99.60;;;;;;5033551;28;20217;-58
2023/10/01 12:32:17;;;;;;;16.13;8.65;;;29.80;99.30;;;;;;5055609;28;20893;-58
2023/10/01 12:34:46;;;;;;;15.82;8.55;;;29.90;99.20;;;;;;5071430;28;20200;-58
2023/10/01 12:40:14;;;;;;;12.50;8.18;;;30.10;99.70;;;;;;5070773;28;20208;-59
2023/10/01 12:42:46;;;;;;;16.30;8.73;;;30.20;99.90;;;;;;5049993;28;20217;-58
2023/10/01 12:45:19;;;;;;;12.40;7.95;;;30.10;99.20;;;;;;5058953;28;20204;-58
2023/10/01 12:47:51;;;;;;;15.43;8.48;;;29.90;99.30;;;;;;5075093;28;20205;-57
2023/10/01 12:50:26;;;;;;;14.27;8.35;;;29.90;99.90;;;;;;5075030;28;20204;-57
2023/10/01 12:55:40;;;;;;;15.57;8.57;;;29.90;99.70;;;;;;5057098;28;22487;-59
2023/10/01 12:58:07;;;;;;;12.82;7.82;;;29.90;98.80;;;;;;5037737;28;20210;-58
2023/10/01 13:00:44;;;;;;;16.75;8.63;;;30.10;98.60;;;;;;5069546;28;20633;-58
2023/10/01 13:03:16;;;;;;;13.45;8.13;;;30.30;98.40;;;;;;5074697;28;20216;-58
2023/10/01 13:05:45;;;;;;;16.35;9.10;;;30.30;98.70;;;;;;5074852;28;20228;-56
2023/10/01 13:08:27;;;;;;;14.50;8.63;;;30.10;98.10;;;;;;5074641;28;20236;-58
2023/10/01 13:10:56;;;;;;;14.90;8.60;;;30.20;97.40;;;;;;5069423;28;20237;-58
2023/10/01 13:13:29;;;;;;;14.23;8.18;;;30.30;97.20;;;;;;5041775;28;20307;-57
2023/10/01 13:16:00;;;;;;;15.35;8.45;;;30.40;97.50;;;;;;5069465;28;20721;-58
2023/10/01 13:18:33;;;;;;;14.93;8.65;;;30.30;98.20;;;;;;5074704;28;20200;-58
2023/10/01 13:21:09;;;;;;;13.10;8.18;;;30.30;97.20;;;;;;5074057;28;20212;-57
2023/10/01 13:23:43;;;;;;;13.55;9.20;;;30.40;97.90;;;;;;5074589;28;20286;-57
2023/10/01 13:26:15;;;;;;;19.52;8.15;;;30.30;97.30;;;;;;5074003;28;20228;-58
2023/10/01 13:28:50;;;;;;;13.73;8.25;;;30.00;97.40;;;;;;5057291;28;20213;-57
2023/10/01 13:31:40;;;;;;;18.33;8.68;;;30.00;97.50;;;;;;5045715;28;20680;-56
2023/10/01 13:34:21;;;;;;;13.15;7.55;;;30.10;97.50;;;;;;5073251;28;20204;-58
2023/10/01 13:37:12;;;;;;;15.45;8.82;;;30.20;97.10;;;;;;5073969;28;20235;-57
2023/10/01 13:39:51;;;;;;;11.20;7.47;;;30.20;97.10;;;;;;5059349;28;20263;-58
2023/10/01 14:10:00;;;;;;;15.93;8.38;;;30.30;95.30;;;;;;5059053;28;20599;-54